createdAt,value
2023-04-15T00:30:07.583Z,1.06
2023-04-15T00:35:17.082Z,1
2023-04-15T00:40:32.839Z,0.95
2023-04-15T00:45:50.052Z,0.97
2023-04-15T00:51:05.717Z,0.94
2023-04-15T00:56:24.474Z,0.96
2023-04-15T01:01:41.667Z,0.95
2023-04-15T01:06:58.182Z,1.02
2023-04-15T01:12:14.811Z,1.02
2023-04-15T01:17:30.458Z,0.99
2023-04-15T01:22:47.475Z,0.98
2023-04-15T01:28:02.509Z,1.02
2023-04-15T01:33:18.420Z,1.08
2023-04-15T01:38:35.913Z,1.05
2023-04-15T01:43:51.639Z,1.04
2023-04-15T01:49:08.459Z,1.04
2023-04-15T01:54:26.749Z,1.03
2023-04-15T01:59:42.186Z,1.06
2023-04-15T02:04:58.355Z,0.98
2023-04-15T02:10:15.978Z,1.04
2023-04-15T02:15:32.928Z,0.99
2023-04-15T02:20:49.402Z,1.09
2023-04-15T02:26:05.414Z,1.04
2023-04-15T02:31:22.776Z,1.04
2023-04-15T02:36:38.670Z,1.07
2023-04-15T02:41:54.749Z,1.08
2023-04-15T02:47:10.526Z,1.14
2023-04-15T02:52:28.198Z,1.13
2023-04-15T02:57:44.914Z,1.11
2023-04-15T03:03:02.016Z,1.18
2023-04-15T03:08:18.546Z,1.15
2023-04-15T03:12:59.071Z,1.22
2023-04-15T03:18:14.988Z,1.14
2023-04-15T03:23:31.644Z,1.15
2023-04-15T03:28:48.587Z,1.16
2023-04-15T03:34:06.030Z,1.19
2023-04-15T03:39:22.845Z,1.17
2023-04-15T03:44:38.949Z,1.06
2023-04-15T03:49:55.159Z,1.03
2023-04-15T03:55:11.070Z,1.04
2023-04-15T04:00:28.223Z,1.05
2023-04-15T04:42:47.261Z,1.11
2023-04-15T04:47:57.203Z,1.13
2023-04-15T04:53:12.705Z,1.07
2023-04-15T04:58:29.706Z,1.07
2023-04-15T05:03:47.481Z,1.14
2023-04-15T05:09:04.164Z,1.1
2023-04-15T05:14:18.836Z,1.08
2023-04-15T05:19:35.785Z,1.07
2023-04-15T05:24:52.282Z,1.06
2023-04-15T05:30:13.929Z,1.18
2023-04-15T05:35:24.677Z,1.18
2023-04-15T05:40:41.619Z,1.18
2023-04-15T05:45:58.096Z,1.12
2023-04-15T05:51:15.418Z,1.31
2023-04-15T05:56:33.319Z,1.28
2023-04-15T06:01:49.866Z,1.19
2023-04-15T06:07:05.492Z,1.19
2023-04-15T06:12:21.240Z,1.1
2023-04-15T06:17:39.396Z,1.17
2023-04-15T06:22:54.825Z,1.2
2023-04-15T06:28:10.114Z,1.21
2023-04-15T06:33:25.894Z,1.23
2023-04-15T06:38:41.932Z,1.2
2023-04-15T06:43:58.798Z,1.22
2023-04-15T06:49:15.713Z,1.3
2023-04-15T06:54:34.017Z,1.19
2023-04-15T06:59:49.561Z,1.16
2023-04-15T07:05:05.935Z,1.14
2023-04-15T07:10:25.836Z,1.14
2023-04-15T07:15:37.277Z,1.07
2023-04-15T07:20:54.753Z,1.09
2023-04-15T07:26:12.316Z,1.09
2023-04-15T07:31:29.251Z,1.11
2023-04-15T07:36:46.342Z,1.07
2023-04-15T07:42:02.808Z,1.05
2023-04-15T08:24:21.998Z,0.78
2023-04-15T08:29:31.666Z,0.94
2023-04-15T08:34:47.005Z,0.68
2023-04-15T08:40:03.979Z,0.77
2023-04-15T08:45:19.328Z,0.91
2023-04-15T08:50:37.073Z,0.69
2023-04-15T08:55:52.955Z,0.82
2023-04-15T09:01:09.969Z,0.84
2023-04-15T09:06:25.210Z,0.74
2023-04-15T09:11:43.006Z,0.92
2023-04-15T09:17:00.319Z,0.8
2023-04-15T09:22:15.855Z,0.83
2023-04-15T09:27:31.947Z,0.88
2023-04-15T09:32:47.476Z,0.91
2023-04-15T09:38:03.316Z,0.73
2023-04-15T09:43:19.069Z,0.75
2023-04-15T09:48:37.130Z,0.78
2023-04-15T09:53:52.429Z,0.91
2023-04-15T09:59:09.630Z,0.88
2023-04-15T10:04:27.603Z,0.87
2023-04-15T10:09:44.620Z,0.84
2023-04-15T10:14:59.819Z,0.88
2023-04-15T10:20:15.772Z,0.86
2023-04-15T10:25:32.258Z,0.63
2023-04-15T10:30:49.722Z,0.7
2023-04-15T10:36:07.180Z,0.79
2023-04-15T10:41:23.465Z,0.78
2023-04-15T10:46:41.037Z,0.77
2023-04-15T10:51:56.999Z,0.74
2023-04-15T10:57:14.365Z,0.67
2023-04-15T11:02:32.354Z,0.67
2023-04-15T11:07:46.518Z,0.58
2023-04-15T11:13:03.235Z,0.61
2023-04-15T11:18:19.177Z,0.68
2023-04-15T12:05:56.700Z,0.6
2023-04-15T12:11:06.114Z,0.69
2023-04-15T12:16:23.924Z,0.7
2023-04-15T12:21:40.322Z,0.67
2023-04-15T12:26:55.909Z,0.73
2023-04-15T12:32:11.801Z,0.65
2023-04-15T12:37:28.038Z,0.63
2023-04-15T12:42:46.772Z,0.63
2023-04-15T12:48:05.061Z,0.64
2023-04-15T12:53:21.246Z,0.71
2023-04-15T12:58:37.741Z,0.53
2023-04-15T13:03:55.519Z,0.49
2023-04-15T13:46:16.504Z,0.63
2023-04-15T13:51:25.613Z,0.5
2023-04-15T13:56:40.989Z,0.67
2023-04-15T14:01:57.776Z,0.65
2023-04-15T14:07:15.321Z,0.58
2023-04-15T14:12:32.455Z,0.58
2023-04-15T14:17:48.292Z,0.56
2023-04-15T14:23:03.868Z,0.54
2023-04-15T14:28:19.834Z,0.5
2023-04-15T14:33:35.819Z,0.54
2023-04-15T14:38:53.932Z,0.5
2023-04-15T14:44:11.570Z,0.61
2023-04-15T14:49:28.587Z,0.58
2023-04-15T14:54:45.381Z,0.53
2023-04-15T15:00:01.955Z,0.53
2023-04-15T15:05:18.685Z,0.54
2023-04-15T15:10:50.285Z,0.42
2023-04-15T15:15:50.598Z,0.53
2023-04-15T15:21:06.489Z,0.58
2023-04-15T15:26:22.489Z,0.47
2023-04-15T15:31:39.090Z,0.58
2023-04-15T15:36:56.544Z,0.56
2023-04-15T15:42:12.759Z,0.6
2023-04-15T15:47:29.039Z,0.62
2023-04-15T15:52:44.772Z,0.57
2023-04-15T15:58:01.167Z,0.52
2023-04-15T16:03:18.708Z,0.63
2023-04-15T16:08:34.803Z,0.67
2023-04-15T16:13:50.230Z,0.6
2023-04-15T16:19:06.875Z,0.72
2023-04-15T16:24:21.370Z,0.67
2023-04-15T16:29:37.455Z,0.59
2023-04-15T16:34:54.830Z,0.65
2023-04-15T16:40:10.939Z,0.72
2023-04-15T16:45:26.457Z,0.58
2023-04-15T17:27:44.835Z,0.71
2023-04-15T17:32:56.080Z,0.72
2023-04-15T17:38:11.815Z,0.72
2023-04-15T17:43:27.946Z,0.77
2023-04-15T17:48:45.540Z,0.76
2023-04-15T17:54:00.910Z,0.65
2023-04-15T17:59:16.609Z,0.73
2023-04-15T18:04:33.805Z,0.7
2023-04-15T18:09:50.859Z,0.46
2023-04-15T18:15:06.493Z,0.69
2023-04-15T18:20:22.193Z,0.72
2023-04-15T18:25:39.809Z,0.69
2023-04-15T18:30:57.438Z,0.62
2023-04-15T18:36:13.980Z,0.71
2023-04-15T18:41:29.556Z,0.48
2023-04-15T18:46:45.098Z,0.74
2023-04-15T18:52:00.582Z,0.69
2023-04-15T18:57:37.000Z,0.72
2023-04-15T19:02:33.715Z,0.75
2023-04-15T19:07:49.288Z,0.88
2023-04-15T19:13:06.611Z,0.76
2023-04-15T19:18:23.816Z,0.42
2023-04-15T19:23:40.276Z,0.74
2023-04-15T19:28:56.854Z,0.73
2023-04-15T19:34:13.432Z,0.72
2023-04-15T19:39:28.914Z,0.74
2023-04-15T19:44:44.862Z,0.67
2023-04-15T19:50:00.922Z,0.72
2023-04-15T19:55:18.207Z,0.67
2023-04-15T20:00:33.431Z,0.78
2023-04-15T20:05:50.137Z,0.76
2023-04-15T20:11:05.877Z,0.6
2023-04-15T20:16:21.475Z,0.72
2023-04-15T20:21:37.563Z,0.58
2023-04-15T20:26:55.912Z,0.76
2023-04-15T21:09:13.195Z,0.85
2023-04-15T21:14:23.132Z,0.82
2023-04-15T21:19:38.904Z,0.67
2023-04-15T21:24:55.748Z,0.57
2023-04-15T21:30:12.452Z,0.73
2023-04-15T21:35:28.306Z,0.84
2023-04-15T21:40:45.096Z,0.69
2023-04-15T21:46:36.369Z,0.81
2023-04-15T21:51:18.279Z,0.72
2023-04-15T21:56:35.073Z,0.79
2023-04-15T22:01:51.673Z,0.9
2023-04-15T22:07:06.702Z,0.83
2023-04-15T22:12:23.803Z,0.73
2023-04-15T22:17:39.223Z,0.95
2023-04-15T22:22:55.145Z,0.92
2023-04-15T22:28:12.120Z,0.84
2023-04-15T22:33:29.719Z,0.95
2023-04-15T22:38:47.339Z,0.82
2023-04-15T22:44:03.317Z,1.06
2023-04-15T22:49:20.801Z,1.02
2023-04-15T22:54:36.969Z,0.99
2023-04-15T22:59:53.904Z,0.97
2023-04-15T23:05:13.943Z,1.04
2023-04-15T23:10:26.779Z,0.86
2023-04-15T23:15:43.218Z,0.88
2023-04-15T23:21:01.005Z,1.04
2023-04-15T23:26:17.779Z,0.93
2023-04-15T23:31:33.318Z,0.91
2023-04-15T23:36:49.795Z,1.11
2023-04-15T23:42:06.216Z,1.04
2023-04-15T23:47:23.249Z,1.17
2023-04-15T23:52:40.283Z,0.92
2023-04-15T23:57:56.742Z,1.16
